Time;durP1;ratioP1;P1;durP2;ratioP2;P2;SDS_P1;SDS_P2;PMS_P1;PMS_P2;Temp;Humidity;BMP_temperature;BMP_pressure;BME280_temperature;BME280_humidity;BME280_pressure;Samples;Min_cycle;Max_cycle;Signal;HPM_P1;HPM_P2
2023/11/28 00:00:57;;;;;;;25.27;14.18;;;;;;;0.58;97.52;99804.88;5072959;28;20470;-82
2023/11/28 00:03:23;;;;;;;28.08;17.92;;;;;;;0.70;97.16;99815.09;5055103;28;20029;-83
2023/11/28 00:05:48;;;;;;;26.02;18.45;;;;;;;0.19;99.34;99778.38;5055482;28;20040;-82
2023/11/28 00:08:14;;;;;;;23.40;14.38;;;;;;;0.48;95.78;99803.38;5054534;28;20043;-82
2023/11/28 00:10:39;;;;;;;24.10;13.57;;;;;;;0.16;99.21;99783.94;5055293;28;20488;-82
2023/11/28 00:13:06;;;;;;;21.85;14.05;;;;;;;0.23;98.30;99779.69;5055018;28;20540;-82
2023/11/28 00:15:34;;;;;;;26.38;15.38;;;;;;;0.40;97.92;99791.06;5055167;28;20091;-81
2023/11/28 00:18:00;;;;;;;22.60;13.70;;;;;;;0.41;98.93;99803.22;5072508;28;20518;-81
2023/11/28 00:20:25;;;;;;;20.80;12.20;;;;;;;0.36;97.80;99787.94;5054611;28;20052;-82
2023/11/28 00:22:51;;;;;;;19.48;10.95;;;;;;;0.42;95.22;99806.66;5055127;28;20048;-82
2023/11/28 00:25:18;;;;;;;20.00;12.10;;;;;;;0.54;97.06;99828.97;5054878;28;20032;-81
2023/11/28 00:27:45;;;;;;;20.38;10.88;;;;;;;0.53;96.95;99811.59;5072584;28;20043;-82
2023/11/28 00:30:15;;;;;;;17.20;10.30;;;;;;;0.35;94.92;99809.91;5054643;28;20034;-82
2023/11/28 00:32:42;;;;;;;19.65;11.38;;;;;;;0.65;94.98;99809.50;5072780;28;20501;-81
2023/11/28 00:35:08;;;;;;;22.40;14.73;;;;;;;0.14;96.63;99770.16;5054649;28;20047;-81
2023/11/28 00:37:34;;;;;;;19.67;11.63;;;;;;;-0.24;100.00;99782.78;5054361;28;20032;-81
2023/11/28 00:39:59;;;;;;;20.73;12.07;;;;;;;0.01;100.00;99778.47;5054368;28;20020;-81
2023/11/28 00:42:25;;;;;;;20.63;12.13;;;;;;;0.16;100.00;99791.78;5054451;28;20564;-82
2023/11/28 00:44:52;;;;;;;19.95;11.35;;;;;;;-0.14;100.00;99766.91;5054740;28;20498;-82
2023/11/28 00:47:17;;;;;;;19.30;12.25;;;;;;;-0.13;100.00;99766.75;5054607;28;20032;-82
2023/11/28 00:49:43;;;;;;;18.23;11.32;;;;;;;-0.07;100.00;99778.44;5054591;28;20032;-82
2023/11/28 00:52:10;;;;;;;22.05;12.27;;;;;;;0.23;100.00;99784.94;5054056;28;20037;-82
2023/11/28 00:54:38;;;;;;;20.55;11.93;;;;;;;0.01;100.00;99770.59;5054500;28;20032;-82
2023/11/28 00:57:04;;;;;;;19.50;13.53;;;;;;;-0.19;100.00;99743.81;5071879;28;20115;-82
2023/11/28 00:59:30;;;;;;;26.35;15.38;;;;;;;0.24;100.00;99723.63;5054316;28;20306;-83
2023/11/28 01:01:56;;;;;;;28.88;17.20;;;;;;;0.33;100.00;99743.66;5053838;28;20028;-82
2023/11/28 01:04:21;;;;;;;27.15;16.85;;;;;;;0.42;99.31;99756.81;5053794;28;20020;-82
2023/11/28 01:06:47;;;;;;;32.95;20.08;;;;;;;0.57;98.87;99744.69;5054084;28;20225;-82
2023/11/28 01:09:14;;;;;;;33.03;19.58;;;;;;;0.20;99.33;99706.56;5054285;28;20185;-81
2023/11/28 01:11:40;;;;;;;34.13;20.97;;;;;;;0.44;99.59;99762.72;5053967;28;20024;-83
2023/11/28 01:14:07;;;;;;;33.03;19.73;;;;;;;0.51;100.00;99756.66;5071291;28;20054;-82
2023/11/28 01:16:32;;;;;;;31.92;19.85;;;;;;;0.31;100.00;99729.91;5053782;28;20032;-83
2023/11/28 01:18:58;;;;;;;30.23;18.90;;;;;;;0.05;100.00;99739.66;5053766;28;20084;-82
2023/11/28 01:21:23;;;;;;;33.17;19.23;;;;;;;0.19;100.00;99746.91;5053282;28;20043;-82
2023/11/28 01:23:49;;;;;;;30.20;18.58;;;;;;;0.31;100.00;99724.66;5054096;28;20028;-83
2023/11/28 01:26:14;;;;;;;28.13;17.40;;;;;;;0.50;99.89;99748.94;5053889;28;20029;-84
2023/11/28 01:28:40;;;;;;;29.42;16.52;;;;;;;0.49;99.52;99742.03;5054124;28;20051;-83
2023/11/28 01:31:05;;;;;;;26.63;16.67;;;;;;;0.47;99.84;99723.03;5054175;28;20024;-82
2023/11/28 01:33:31;;;;;;;26.10;15.00;;;;;;;0.29;98.59;99708.25;5072071;28;20024;-83
2023/11/28 01:35:56;;;;;;;26.42;16.25;;;;;;;0.48;98.33;99714.19;5054200;28;20030;-83
2023/11/28 01:38:22;;;;;;;24.58;14.98;;;;;;;0.06;100.00;99730.78;5054158;28;20082;-83
2023/11/28 01:40:50;;;;;;;28.40;15.30;;;;;;;-0.41;100.00;99696.22;5054096;28;20031;-81
2023/11/28 01:43:26;;;;;;;27.05;15.77;;;;;;;0.06;100.00;99721.16;5054910;28;20481;-84
2023/11/28 01:45:52;;;;;;;25.75;15.35;;;;;;;-0.20;100.00;99684.53;5054041;28;20127;-83
2023/11/28 01:48:19;;;;;;;29.85;15.55;;;;;;;-0.21;100.00;99702.03;5071601;28;20058;-85
2023/11/28 01:50:47;;;;;;;23.35;15.73;;;;;;;-0.08;100.00;99648.34;5071626;28;20028;-83
2023/11/28 01:53:12;;;;;;;27.20;15.60;;;;;;;0.31;100.00;99676.63;5071308;28;20029;-83
2023/11/28 01:55:38;;;;;;;25.25;14.73;;;;;;;0.24;100.00;99678.25;5071115;28;20115;-84
2023/11/28 01:58:03;;;;;;;24.67;14.93;;;;;;;0.12;100.00;99673.31;5070250;28;20033;-83
2023/11/28 02:00:29;;;;;;;23.67;14.30;;;;;;;0.60;100.00;99708.44;5070332;28;20027;-83
2023/11/28 02:02:59;;;;;;;24.98;14.23;;;;;;;0.60;98.28;99671.72;5069498;28;20039;-86
2023/11/28 02:05:25;;;;;;;21.67;13.15;;;;;;;0.47;98.25;99654.81;5066403;28;20102;-83
2023/11/28 02:07:51;;;;;;;21.85;12.15;;;;;;;0.36;99.84;99667.25;5067132;28;20027;-84
2023/11/28 02:10:16;;;;;;;26.23;14.95;;;;;;;-0.23;100.00;99682.19;5066919;28;20036;-83
2023/11/28 02:12:43;;;;;;;26.60;14.98;;;;;;;-0.45;100.00;99680.97;5100680;28;20039;-84
2023/11/28 02:15:09;;;;;;;27.23;15.85;;;;;;;-0.42;100.00;99636.94;5066623;28;20128;-84
2023/11/28 02:17:34;;;;;;;26.15;16.00;;;;;;;0.26;100.00;99677.09;5065230;28;20016;-83
2023/11/28 02:20:00;;;;;;;24.95;15.38;;;;;;;0.09;100.00;99643.97;5064646;28;20583;-83
2023/11/28 02:22:26;;;;;;;23.60;14.73;;;;;;;-0.07;100.00;99650.00;5060558;28;20021;-85
2023/11/28 02:24:54;;;;;;;24.65;14.10;;;;;;;0.07;100.00;99678.19;5056115;28;20542;-84
2023/11/28 02:27:20;;;;;;;23.70;13.60;;;;;;;-0.44;100.00;99665.09;5053974;28;20107;-83
2023/11/28 02:29:46;;;;;;;25.48;14.48;;;;;;;-0.11;100.00;99680.13;5053804;28;20068;-83
2023/11/28 02:32:12;;;;;;;22.73;13.45;;;;;;;-0.28;100.00;99645.19;5053416;28;20020;-84
2023/11/28 02:34:37;;;;;;;26.85;13.77;;;;;;;0.05;100.00;99668.88;5053301;28;20257;-84
2023/11/28 02:37:03;;;;;;;23.90;14.95;;;;;;;0.24;100.00;99676.44;5053444;28;20469;-83
2023/11/28 02:39:29;;;;;;;24.67;15.25;;;;;;;0.21;100.00;99670.72;5052997;28;20086;-84
2023/11/28 02:41:55;;;;;;;25.90;14.38;;;;;;;0.40;100.00;99676.44;5053308;28;20090;-83
2023/11/28 02:44:20;;;;;;;24.50;14.30;;;;;;;-0.14;100.00;99625.38;5052672;28;20032;-83
2023/11/28 02:46:46;;;;;;;24.83;15.43;;;;;;;-0.15;100.00;99660.44;5053628;28;20033;-82
2023/11/28 02:49:11;;;;;;;24.10;14.70;;;;;;;-0.04;100.00;99647.03;5052758;28;20032;-83
2023/11/28 02:51:37;;;;;;;23.58;14.07;;;;;;;-0.15;100.00;99635.06;5052870;28;20051;-84
2023/11/28 02:54:02;;;;;;;25.65;12.85;;;;;;;0.04;100.00;99654.94;5052843;28;20121;-83
2023/11/28 02:56:28;;;;;;;22.40;13.45;;;;;;;0.18;100.00;99622.84;5070636;28;20029;-84
2023/11/28 02:58:54;;;;;;;22.73;12.55;;;;;;;0.66;100.00;99654.50;5052742;28;20037;-84
2023/11/28 03:01:19;;;;;;;20.55;12.07;;;;;;;0.21;100.00;99598.09;5052364;28;20527;-83
2023/11/28 03:03:45;;;;;;;20.15;12.75;;;;;;;0.31;100.00;99606.63;5052797;28;20537;-83
2023/11/28 03:06:11;;;;;;;21.05;12.88;;;;;;;0.20;100.00;99612.16;5052511;28;20024;-82
2023/11/28 03:08:36;;;;;;;23.25;12.85;;;;;;;0.05;100.00;99604.13;5052590;28;20036;-83
2023/11/28 03:11:02;;;;;;;21.52;13.23;;;;;;;0.35;100.00;99615.81;5052523;28;20021;-83
2023/11/28 03:13:27;;;;;;;23.45;12.20;;;;;;;0.71;100.00;99625.94;5052490;28;20036;-82
2023/11/28 03:15:53;;;;;;;20.30;11.23;;;;;;;0.40;100.00;99621.34;5052299;28;20040;-84
2023/11/28 03:18:19;;;;;;;18.58;11.63;;;;;;;0.24;100.00;99600.38;5052370;28;20036;-83
2023/11/28 03:20:44;;;;;;;16.40;9.93;;;;;;;0.17;100.00;99629.06;5052353;28;20044;-83
2023/11/28 03:23:10;;;;;;;22.60;12.00;;;;;;;0.29;100.00;99584.97;5052373;28;20025;-83
2023/11/28 03:25:35;;;;;;;35.97;16.23;;;;;;;0.47;100.00;99591.84;5051899;28;20094;-83
2023/11/28 03:28:01;;;;;;;27.20;14.30;;;;;;;0.51;100.00;99580.88;5050120;28;20523;-84
2023/11/28 03:30:26;;;;;;;45.08;17.60;;;;;;;0.59;100.00;99580.88;5050305;28;20485;-83
2023/11/28 03:32:52;;;;;;;50.95;19.77;;;;;;;0.89;100.00;99596.06;5050308;28;20027;-84
2023/11/28 03:35:17;;;;;;;36.00;13.82;;;;;;;0.80;100.00;99598.72;5049542;28;20028;-82
2023/11/28 03:37:46;;;;;;;49.13;19.98;;;;;;;1.22;99.25;99609.09;5050248;28;20029;-83
2023/11/28 03:40:12;;;;;;;35.75;17.23;;;;;;;1.12;98.78;99630.28;5049969;28;20040;-83
2023/11/28 03:42:37;;;;;;;56.65;28.00;;;;;;;0.97;98.22;99603.91;5049668;28;20036;-84
2023/11/28 03:45:04;;;;;;;44.38;23.55;;;;;;;0.89;100.00;99611.81;5054098;28;20463;-83
2023/11/28 03:47:30;;;;;;;33.20;18.45;;;;;;;0.72;99.81;99587.41;5055317;28;20119;-85
2023/11/28 03:49:56;;;;;;;18.15;10.52;;;;;;;0.47;100.00;99544.63;5073696;28;20107;-83
2023/11/28 03:52:21;;;;;;;17.95;10.05;;;;;;;0.84;100.00;99566.84;5055558;28;20063;-83
2023/11/28 03:54:47;;;;;;;16.30;9.85;;;;;;;0.65;100.00;99562.81;5049998;28;20450;-82
2023/11/28 03:57:13;;;;;;;13.13;8.63;;;;;;;0.46;100.00;99535.94;5035672;28;20029;-85
2023/11/28 03:59:38;;;;;;;16.30;9.02;;;;;;;0.73;100.00;99555.72;5053406;28;20025;-83
2023/11/28 04:02:04;;;;;;;14.05;8.77;;;;;;;0.72;100.00;99540.16;5055333;28;20405;-83
2023/11/28 04:04:29;;;;;;;16.08;8.95;;;;;;;0.98;99.54;99542.53;5055099;28;20036;-85
2023/11/28 04:06:55;;;;;;;16.52;8.98;;;;;;;0.98;99.25;99559.13;5055312;28;20032;-84
2023/11/28 04:09:20;;;;;;;17.15;8.52;;;;;;;0.21;100.00;99514.19;5055438;28;20055;-83
2023/11/28 04:11:46;;;;;;;16.35;9.52;;;;;;;0.28;100.00;99551.84;5055313;28;20020;-83
2023/11/28 04:14:12;;;;;;;16.08;9.38;;;;;;;0.51;100.00;99546.78;5055132;28;20059;-83
2023/11/28 04:16:37;;;;;;;15.40;9.38;;;;;;;0.72;100.00;99579.53;5055093;28;20405;-84
2023/11/28 04:19:03;;;;;;;17.38;9.20;;;;;;;0.35;100.00;99562.53;5054685;28;20636;-84
2023/11/28 04:21:28;;;;;;;16.88;9.57;;;;;;;0.45;100.00;99562.34;5054889;28;20055;-84
2023/11/28 04:23:54;;;;;;;19.75;11.25;;;;;;;0.60;100.00;99571.19;5054940;28;20025;-83
2023/11/28 04:26:19;;;;;;;20.98;13.07;;;;;;;0.37;100.00;99545.63;5054995;28;20401;-84
2023/11/28 04:28:44;;;;;;;18.70;12.75;;;;;;;0.29;100.00;99540.41;5054815;28;20405;-84
2023/11/28 04:31:18;;;;;;;20.60;11.68;;;;;;;0.46;100.00;99532.50;5055002;28;20032;-83
2023/11/28 04:33:44;;;;;;;15.90;10.20;;;;;;;0.49;100.00;99542.66;5054727;28;20119;-83
2023/11/28 04:36:10;;;;;;;19.35;10.95;;;;;;;0.80;100.00;99540.97;5054967;28;20132;-83
2023/11/28 04:38:36;;;;;;;17.02;10.80;;;;;;;1.00;99.89;99566.81;5054983;28;20079;-83
2023/11/28 04:41:01;;;;;;;16.60;9.57;;;;;;;0.31;100.00;99519.25;5054587;28;20551;-84
2023/11/28 04:43:27;;;;;;;21.45;12.40;;;;;;;0.57;100.00;99519.03;5055062;28;20508;-83
2023/11/28 04:45:53;;;;;;;20.90;12.70;;;;;;;0.78;100.00;99515.88;5054596;28;20441;-82
2023/11/28 04:48:19;;;;;;;20.48;11.55;;;;;;;0.95;99.41;99525.31;5054613;28;20029;-83
2023/11/28 04:50:44;;;;;;;17.95;10.57;;;;;;;1.00;99.69;99527.44;5054804;28;20020;-83
2023/11/28 04:53:10;;;;;;;17.15;11.00;;;;;;;0.80;96.75;99483.22;5054680;28;20123;-83
2023/11/28 04:55:35;;;;;;;15.98;9.82;;;;;;;0.70;97.88;99510.66;5054379;28;20029;-82
2023/11/28 04:58:00;;;;;;;17.90;10.52;;;;;;;0.31;100.00;99517.44;5054297;28;20024;-83
2023/11/28 05:00:26;;;;;;;17.15;10.40;;;;;;;0.46;100.00;99480.84;5054421;28;20021;-83
2023/11/28 05:02:51;;;;;;;26.63;14.88;;;;;;;0.49;100.00;99466.56;5054401;28;20032;-83
2023/11/28 05:05:17;;;;;;;20.90;12.32;;;;;;;0.83;100.00;99491.72;5054438;28;20035;-83
2023/11/28 05:07:42;;;;;;;22.48;12.00;;;;;;;0.91;99.92;99499.56;5054036;28;20044;-83
2023/11/28 05:10:08;;;;;;;22.30;11.63;;;;;;;0.76;100.00;99512.59;5054277;28;20032;-82
2023/11/28 05:12:35;;;;;;;18.77;11.25;;;;;;;0.74;99.48;99494.38;5054111;28;20519;-84
2023/11/28 05:15:02;;;;;;;30.98;16.58;;;;;;;0.94;98.88;99489.56;5054041;28;20685;-83
2023/11/28 05:17:28;;;;;;;22.98;12.60;;;;;;;0.47;100.00;99460.66;5053965;28;20029;-82
2023/11/28 05:19:53;;;;;;;22.38;14.05;;;;;;;0.69;100.00;99485.38;5053467;28;20055;-82
2023/11/28 05:22:19;;;;;;;23.27;12.93;;;;;;;0.66;100.00;99473.41;5053260;28;20029;-83
2023/11/28 05:24:45;;;;;;;22.65;13.30;;;;;;;0.77;100.00;99488.78;5052963;28;20098;-83
2023/11/28 05:27:10;;;;;;;19.38;13.23;;;;;;;0.48;100.00;99509.53;5048025;28;20090;-83
2023/11/28 05:29:36;;;;;;;23.90;11.43;;;;;;;0.61;100.00;99499.34;5053806;28;20032;-83
2023/11/28 05:32:04;;;;;;;19.35;11.73;;;;;;;0.43;100.00;99465.47;5053978;28;20105;-83
2023/11/28 05:34:30;;;;;;;16.42;9.38;;;;;;;0.72;100.00;99470.13;5053852;28;20388;-83
2023/11/28 05:36:55;;;;;;;15.93;10.02;;;;;;;0.81;100.00;99489.28;5053524;28;20032;-83
2023/11/28 05:39:21;;;;;;;26.38;11.73;;;;;;;0.44;100.00;99456.59;5053792;28;20111;-85
2023/11/28 05:41:46;;;;;;;25.65;14.85;;;;;;;0.68;100.00;99460.94;5053711;28;20045;-83
2023/11/28 05:44:11;;;;;;;26.30;14.88;;;;;;;0.36;100.00;99446.94;5053416;28;20040;-83
2023/11/28 05:46:37;;;;;;;27.08;15.07;;;;;;;0.57;100.00;99442.94;5053419;28;20024;-84
2023/11/28 05:49:02;;;;;;;28.10;14.98;;;;;;;0.39;100.00;99448.41;5053592;28;20033;-84
2023/11/28 05:51:28;;;;;;;44.13;17.85;;;;;;;0.20;100.00;99436.47;5053504;28;20028;-83
2023/11/28 05:53:53;;;;;;;27.48;13.57;;;;;;;0.50;100.00;99453.28;5053087;28;20068;-83
2023/11/28 05:56:18;;;;;;;30.83;14.48;;;;;;;0.49;100.00;99471.81;5053496;28;20028;-82
2023/11/28 05:58:44;;;;;;;22.17;13.73;;;;;;;0.74;100.00;99447.16;5051320;28;20040;-84
2023/11/28 06:01:14;;;;;;;31.48;18.67;;;;;;;1.07;100.00;99467.19;5033543;28;20036;-83
2023/11/28 06:03:40;;;;;;;29.70;16.58;;;;;;;0.93;100.00;99439.84;5033277;28;20477;-84
2023/11/28 06:06:05;;;;;;;27.38;16.17;;;;;;;0.87;100.00;99445.78;5035888;28;20016;-84
2023/11/28 06:08:32;;;;;;;27.08;16.10;;;;;;;0.91;100.00;99440.00;5071288;28;20037;-83
2023/11/28 06:10:57;;;;;;;19.38;12.55;;;;;;;1.12;99.39;99441.22;5053376;28;20415;-84
2023/11/28 06:13:23;;;;;;;24.27;14.52;;;;;;;1.11;98.96;99422.03;5053521;28;20564;-83
2023/11/28 06:15:48;;;;;;;25.38;14.93;;;;;;;0.78;100.00;99431.88;5071117;28;20028;-83
2023/11/28 06:18:13;;;;;;;27.85;15.48;;;;;;;0.86;100.00;99438.88;5053085;28;20036;-84
2023/11/28 06:20:39;;;;;;;24.48;14.55;;;;;;;0.69;100.00;99396.97;5052881;28;20045;-84
2023/11/28 06:23:04;;;;;;;21.13;12.60;;;;;;;0.53;100.00;99391.78;5048995;28;20033;-83
2023/11/28 06:25:30;;;;;;;22.42;13.32;;;;;;;0.87;100.00;99401.16;5038356;28;20039;-83
2023/11/28 06:27:56;;;;;;;26.98;16.58;;;;;;;0.66;100.00;99414.88;5051018;28;20028;-83
2023/11/28 06:30:21;;;;;;;25.83;16.40;;;;;;;0.89;100.00;99393.91;5057195;28;20028;-84
2023/11/28 06:32:47;;;;;;;25.65;16.20;;;;;;;1.20;100.00;99420.16;5059629;28;20029;-84
2023/11/28 06:35:12;;;;;;;22.55;13.25;;;;;;;1.32;100.00;99416.13;5043234;28;20066;-83
2023/11/28 06:37:38;;;;;;;28.35;15.70;;;;;;;1.13;100.00;99346.50;5038740;28;20520;-83
2023/11/28 06:40:04;;;;;;;26.35;16.27;;;;;;;1.22;100.00;99381.41;5052768;28;20246;-85
2023/11/28 06:42:29;;;;;;;33.55;24.27;;;;;;;1.32;100.00;99370.66;5046276;28;20025;-84
2023/11/28 06:44:55;;;;;;;23.45;13.45;;;;;;;1.30;100.00;99349.00;5040921;28;20055;-82
2023/11/28 06:47:20;;;;;;;27.17;18.10;;;;;;;1.64;99.96;99387.97;5046210;28;20472;-85
2023/11/28 06:49:47;;;;;;;32.97;22.80;;;;;;;1.80;97.98;99363.38;5046683;28;20692;-83
2023/11/28 06:52:13;;;;;;;18.58;12.20;;;;;;;1.64;98.62;99387.97;5042869;28;20036;-82
2023/11/28 06:54:42;;;;;;;36.00;22.88;;;;;;;2.03;96.31;99375.63;5038328;28;20474;-82
2023/11/28 06:57:08;;;;;;;69.50;28.95;;;;;;;1.90;96.37;99348.16;5044887;28;20055;-83
2023/11/28 06:59:34;;;;;;;60.65;26.73;;;;;;;1.86;95.20;99360.00;5042356;28;20033;-84
2023/11/28 07:02:00;;;;;;;34.83;17.60;;;;;;;1.83;96.08;99335.88;5034448;28;20474;-82
2023/11/28 07:04:25;;;;;;;21.52;11.23;;;;;;;2.03;95.14;99346.69;5044135;28;20086;-82
2023/11/28 07:06:51;;;;;;;16.50;10.73;;;;;;;2.25;93.57;99372.09;5053507;28;20086;-82
2023/11/28 07:09:16;;;;;;;15.55;9.50;;;;;;;2.38;94.10;99345.94;5052254;28;20036;-83
2023/11/28 07:11:42;;;;;;;20.50;12.65;;;;;;;2.62;91.76;99372.97;5052326;28;20398;-83
2023/11/28 07:14:07;;;;;;;28.63;16.52;;;;;;;2.89;89.95;99368.00;5052228;28;20058;-82
2023/11/28 07:16:34;;;;;;;26.17;15.88;;;;;;;2.82;89.84;99367.94;5052375;28;20032;-82
2023/11/28 07:19:00;;;;;;;30.33;18.90;;;;;;;2.94;89.08;99355.06;5053338;28;20040;-84
2023/11/28 07:21:25;;;;;;;25.38;15.88;;;;;;;2.92;89.04;99333.38;5055482;28;20485;-83
2023/11/28 07:23:51;;;;;;;21.50;12.13;;;;;;;3.20;88.12;99352.72;5053321;28;20101;-83
2023/11/28 07:26:19;;;;;;;19.13;8.75;;;;;;;3.03;87.62;99308.38;5041792;28;20112;-83
2023/11/28 07:28:45;;;;;;;13.90;8.93;;;;;;;3.20;87.24;99289.47;5036146;28;20025;-83
2023/11/28 07:31:13;;;;;;;36.38;16.38;;;;;;;3.36;88.65;99312.09;5035848;28;20029;-83
2023/11/28 07:33:38;;;;;;;31.60;20.67;;;;;;;3.37;88.00;99320.81;5045786;28;20078;-83
2023/11/28 07:36:04;;;;;;;25.58;16.75;;;;;;;3.17;88.19;99323.31;5055793;28;20712;-84
2023/11/28 07:38:29;;;;;;;29.48;16.23;;;;;;;3.12;90.69;99331.75;5074113;28;20025;-84
2023/11/28 07:40:55;;;;;;;22.58;13.57;;;;;;;3.03;91.35;99322.38;5037573;28;20037;-84
2023/11/28 07:43:20;;;;;;;44.67;23.10;;;;;;;3.32;91.37;99325.88;5035912;28;20032;-83
2023/11/28 07:45:46;;;;;;;22.20;13.90;;;;;;;3.44;87.89;99329.63;5044813;28;20063;-82
2023/11/28 07:48:12;;;;;;;22.40;12.98;;;;;;;3.30;90.96;99318.13;5048076;28;20044;-83
2023/11/28 07:50:38;;;;;;;18.60;11.30;;;;;;;2.96;92.60;99285.44;5050390;28;20520;-83
2023/11/28 07:53:03;;;;;;;19.40;10.50;;;;;;;3.05;92.20;99299.28;5055427;28;20028;-83
2023/11/28 07:55:29;;;;;;;19.50;11.65;;;;;;;2.95;90.96;99288.25;5054964;28;20032;-83
2023/11/28 07:57:54;;;;;;;24.95;16.35;;;;;;;2.95;90.89;99272.44;5070080;28;20031;-82
2023/11/28 08:00:22;;;;;;;27.63;19.02;;;;;;;3.08;90.45;99267.28;5046292;28;20089;-83
2023/11/28 08:02:48;;;;;;;27.77;18.17;;;;;;;3.01;89.93;99255.88;5039119;28;20047;-84
2023/11/28 08:05:13;;;;;;;27.58;20.35;;;;;;;3.01;91.47;99255.88;5051590;28;20493;-83
2023/11/28 08:07:39;;;;;;;35.15;23.25;;;;;;;2.84;92.60;99236.06;5047947;28;20497;-83
2023/11/28 08:10:11;;;;;;;38.03;21.60;;;;;;;2.89;92.28;99225.78;5052354;28;20035;-82
2023/11/28 08:12:40;;;;;;;51.13;22.85;;;;;;;3.60;89.62;99260.78;5055169;28;20089;-83
2023/11/28 08:15:08;;;;;;;51.63;23.10;;;;;;;3.61;88.35;99258.94;5055056;28;20028;-83
2023/11/28 08:17:33;;;;;;;39.70;21.42;;;;;;;3.03;88.90;99206.47;5054532;28;20119;-83
2023/11/28 08:20:00;;;;;;;73.22;44.97;;;;;;;3.25;90.35;99253.81;5043449;28;20136;-82
2023/11/28 08:22:25;;;;;;;33.20;21.05;;;;;;;3.09;90.49;99228.59;5035114;28;20025;-85
2023/11/28 08:24:51;;;;;;;37.88;25.88;;;;;;;3.31;89.38;99222.28;5034966;28;20028;-83
2023/11/28 08:27:18;;;;;;;18.05;9.95;;;;;;;3.42;86.17;99232.28;5034814;28;20474;-82
2023/11/28 08:29:43;;;;;;;12.05;6.50;;;;;;;3.11;84.98;99243.22;5034233;28;20059;-83
2023/11/28 08:32:09;;;;;;;12.30;7.72;;;;;;;3.05;85.78;99219.44;5034667;28;20406;-83
2023/11/28 08:34:35;;;;;;;9.88;5.65;;;;;;;2.86;84.75;99199.81;5034689;28;20091;-81
2023/11/28 08:37:00;;;;;;;12.85;7.82;;;;;;;3.19;85.05;99222.00;5034734;28;20040;-82
2023/11/28 08:39:26;;;;;;;22.17;10.25;;;;;;;3.13;86.08;99206.94;5034652;28;20646;-84
2023/11/28 08:41:53;;;;;;;16.02;8.18;;;;;;;2.86;86.23;99198.03;5034580;28;20116;-83
2023/11/28 08:44:18;;;;;;;15.02;8.27;;;;;;;2.97;87.31;99204.59;5034903;28;20052;-82
2023/11/28 08:46:44;;;;;;;8.55;5.13;;;;;;;3.02;85.91;99204.81;5034251;28;20490;-82
2023/11/28 08:49:09;;;;;;;10.07;5.80;;;;;;;2.77;87.78;99170.19;5033714;28;20077;-83
2023/11/28 08:51:34;;;;;;;12.82;6.18;;;;;;;2.79;87.70;99153.19;5034386;28;20032;-82
2023/11/28 08:54:00;;;;;;;10.73;6.38;;;;;;;3.12;87.67;99157.88;5034483;28;20074;-83
2023/11/28 08:56:25;;;;;;;14.38;6.18;;;;;;;3.00;87.98;99177.84;5033913;28;20059;-81
2023/11/28 08:58:53;;;;;;;9.07;5.40;;;;;;;3.13;87.10;99170.06;5034313;28;20399;-81
2023/11/28 09:01:18;;;;;;;10.48;5.78;;;;;;;3.03;85.98;99137.97;5034161;28;20056;-82
2023/11/28 09:03:44;;;;;;;9.50;5.07;;;;;;;2.85;86.68;99108.69;5034219;28;20056;-84
2023/11/28 09:06:09;;;;;;;9.40;5.00;;;;;;;2.79;88.11;99105.78;5034021;28;20024;-82
2023/11/28 09:08:35;;;;;;;8.93;4.65;;;;;;;3.04;88.88;99110.63;5052358;28;20079;-82
2023/11/28 09:11:02;;;;;;;8.80;4.70;;;;;;;3.12;86.57;99121.00;5034193;28;20068;-83
2023/11/28 09:13:31;;;;;;;7.72;5.07;;;;;;;2.93;87.89;99101.44;5033949;28;20033;-81
2023/11/28 09:15:59;;;;;;;8.70;5.65;;;;;;;3.12;87.35;99110.47;5051922;28;20021;-82
2023/11/28 09:18:24;;;;;;;8.75;4.82;;;;;;;3.25;87.73;99106.28;5033875;28;20055;-82
2023/11/28 09:20:49;;;;;;;23.80;10.07;;;;;;;3.31;87.70;99097.59;5069448;28;20049;-83
2023/11/28 09:23:15;;;;;;;23.08;9.10;;;;;;;2.97;86.13;99067.63;5053816;28;20427;-85
2023/11/28 09:25:40;;;;;;;11.27;5.97;;;;;;;3.24;86.53;99096.75;5053631;28;20036;-82
2023/11/28 09:28:06;;;;;;;10.02;5.82;;;;;;;3.22;85.11;99058.22;5071665;28;20021;-81
2023/11/28 09:30:32;;;;;;;12.48;6.28;;;;;;;3.01;85.45;99039.91;5053437;28;20540;-81
2023/11/28 09:32:58;;;;;;;13.27;7.40;;;;;;;3.04;86.19;99044.75;5053813;28;20035;-81
2023/11/28 09:35:23;;;;;;;12.30;7.22;;;;;;;3.08;86.75;99032.84;5053349;28;20029;-80
2023/11/28 09:37:49;;;;;;;11.63;5.90;;;;;;;2.83;85.85;99021.16;5071476;28;20132;-81
2023/11/28 09:40:15;;;;;;;15.73;7.22;;;;;;;3.17;87.09;99031.66;5053102;28;20472;-81
2023/11/28 09:42:42;;;;;;;15.18;8.10;;;;;;;3.18;86.90;99028.00;5052978;28;20028;-81
2023/11/28 09:45:07;;;;;;;11.60;7.00;;;;;;;3.29;87.66;99033.72;5071334;28;20032;-82
2023/11/28 09:47:35;;;;;;;21.02;10.00;;;;;;;3.06;88.19;98984.00;5053398;28;20098;-81
2023/11/28 09:50:03;;;;;;;14.15;7.55;;;;;;;3.19;88.09;99010.41;5053083;28;20025;-81
2023/11/28 09:52:33;;;;;;;18.08;8.65;;;;;;;2.92;87.22;98938.34;5053181;28;20033;-82
2023/11/28 09:54:59;;;;;;;12.65;6.15;;;;;;;3.21;86.93;98980.22;5053330;28;20408;-81
2023/11/28 09:57:32;;;;;;;13.90;7.00;;;;;;;3.16;87.46;98964.16;5052753;28;20017;-82
2023/11/28 09:59:58;;;;;;;12.98;9.30;;;;;;;3.42;85.37;98962.63;5071587;28;20051;-81
2023/11/28 10:02:26;;;;;;;22.00;10.80;;;;;;;3.29;85.42;98930.97;5071300;28;20556;-81
2023/11/28 10:04:51;;;;;;;13.50;6.88;;;;;;;3.01;86.00;98905.56;5053053;28;20028;-82
2023/11/28 10:07:17;;;;;;;13.32;6.47;;;;;;;3.36;85.76;98929.97;5052800;28;20036;-80
2023/11/28 10:09:49;;;;;;;10.32;5.43;;;;;;;3.44;83.70;98930.81;5052639;28;20182;-81
2023/11/28 10:12:15;;;;;;;19.27;8.35;;;;;;;3.27;86.42;98917.19;5052942;28;20030;-80
2023/11/28 10:14:44;;;;;;;22.50;8.88;;;;;;;3.39;87.06;98915.56;5052874;28;20032;-81
2023/11/28 10:17:10;;;;;;;20.33;8.35;;;;;;;3.22;87.47;98889.59;5070317;28;20462;-80
2023/11/28 10:19:35;;;;;;;27.05;9.52;;;;;;;3.44;88.05;98892.09;5052425;28;20131;-81
2023/11/28 10:22:08;;;;;;;18.25;6.88;;;;;;;3.27;88.70;98881.13;5052460;28;20028;-81
2023/11/28 10:24:33;;;;;;;23.27;10.00;;;;;;;3.31;89.63;98876.25;5052665;28;20575;-81
2023/11/28 10:27:00;;;;;;;16.17;7.50;;;;;;;3.52;89.92;98873.44;5053007;28;20046;-80
2023/11/28 10:29:28;;;;;;;19.95;8.65;;;;;;;3.22;90.56;98858.00;5052595;28;20032;-81
2023/11/28 10:31:54;;;;;;;19.02;8.05;;;;;;;3.13;90.39;98821.53;5052512;28;20025;-81
2023/11/28 10:34:20;;;;;;;17.48;6.40;;;;;;;3.26;89.84;98836.53;5052602;28;20043;-80
2023/11/28 10:36:46;;;;;;;21.35;8.25;;;;;;;3.59;88.12;98863.69;5052706;28;20071;-81
2023/11/28 10:39:12;;;;;;;14.68;6.75;;;;;;;3.68;86.64;98818.66;5070481;28;20036;-81
2023/11/28 10:41:40;;;;;;;15.13;7.32;;;;;;;3.92;87.26;98852.31;5070194;28;20580;-80
2023/11/28 10:44:06;;;;;;;12.55;6.45;;;;;;;3.89;87.31;98825.53;5052401;28;20527;-82
2023/11/28 10:46:37;;;;;;;16.00;9.10;;;;;;;4.20;86.63;98845.97;5052387;28;20024;-80
2023/11/28 10:49:03;;;;;;;7.72;4.72;;;;;;;4.25;86.55;98834.78;5070717;28;20509;-81
2023/11/28 10:51:30;;;;;;;11.73;6.25;;;;;;;4.16;89.16;98818.38;5069671;28;20103;-81
2023/11/28 10:54:04;;;;;;;14.80;7.78;;;;;;;4.36;86.84;98800.63;5073692;28;20108;-81
2023/11/28 10:56:48;;;;;;;15.90;8.98;;;;;;;4.33;87.13;98806.34;5074581;28;20043;-81
2023/11/28 10:59:39;;;;;;;23.85;13.02;;;;;;;4.47;86.48;98796.53;5036571;28;20048;-82
2023/11/28 11:02:05;;;;;;;20.95;12.68;;;;;;;4.28;87.81;98768.41;5052927;28;20044;-81
2023/11/28 11:04:31;;;;;;;21.73;11.80;;;;;;;4.32;87.37;98751.94;5074206;28;20400;-80
2023/11/28 11:06:56;;;;;;;23.35;13.30;;;;;;;4.56;87.01;98770.72;5056211;28;20031;-81
2023/11/28 11:09:23;;;;;;;48.30;22.20;;;;;;;4.37;87.69;98762.69;5073583;28;20059;-80
2023/11/28 11:11:50;;;;;;;17.92;11.77;;;;;;;4.18;89.56;98723.97;5056017;28;20028;-80
2023/11/28 11:14:35;;;;;;;21.88;10.85;;;;;;;4.45;88.83;98731.75;5073943;28;20413;-81
2023/11/28 11:17:38;;;;;;;12.57;7.88;;;;;;;4.70;87.74;98737.09;5056081;28;20025;-83
2023/11/28 11:20:07;;;;;;;10.40;5.10;;;;;;;4.39;88.73;98705.22;5035927;28;20131;-81